createdAt,value
2023-06-12T00:00:03.585Z,35.37
2023-06-12T00:01:03.552Z,35.36
2023-06-12T00:02:03.544Z,35.40
2023-06-12T00:03:03.677Z,35.38
2023-06-12T00:04:03.616Z,35.40
2023-06-12T00:05:03.630Z,35.35
2023-06-12T00:06:03.571Z,35.34
2023-06-12T00:07:03.565Z,35.35
2023-06-12T00:08:03.493Z,35.42
2023-06-12T00:09:03.478Z,35.45
2023-06-12T00:10:03.500Z,35.46
2023-06-12T00:11:03.481Z,35.45
2023-06-12T00:12:03.553Z,35.47
2023-06-12T00:13:03.495Z,35.47
2023-06-12T00:14:03.478Z,35.44
2023-06-12T00:15:03.497Z,35.47
2023-06-12T00:16:03.519Z,35.42
2023-06-12T00:17:03.507Z,35.39
2023-06-12T00:18:03.585Z,35.41
2023-06-12T00:19:03.499Z,35.43
2023-06-12T00:20:03.497Z,35.41
2023-06-12T00:21:03.476Z,35.41
2023-06-12T00:22:03.514Z,35.41
2023-06-12T00:23:03.443Z,35.43
2023-06-12T00:24:03.437Z,35.40
2023-06-12T00:25:03.376Z,35.45
2023-06-12T00:26:03.374Z,35.41
2023-06-12T00:27:03.390Z,35.38
2023-06-12T00:28:03.353Z,35.41
2023-06-12T00:29:03.394Z,35.35
2023-06-12T00:30:03.450Z,35.40
2023-06-12T00:31:03.503Z,35.39
2023-06-12T00:32:03.652Z,35.40
2023-06-12T00:33:03.677Z,35.35
2023-06-12T00:34:03.553Z,35.34
2023-06-12T00:35:03.626Z,35.36
2023-06-12T00:36:03.631Z,35.37
2023-06-12T00:37:03.631Z,35.36
2023-06-12T00:38:03.659Z,35.35
2023-06-12T00:39:03.677Z,35.35
2023-06-12T00:40:03.743Z,35.37
2023-06-12T00:41:03.833Z,35.38
2023-06-12T00:42:03.762Z,35.38
2023-06-12T00:43:03.812Z,35.35
2023-06-12T00:44:03.844Z,35.35
2023-06-12T00:45:03.856Z,35.35
2023-06-12T00:46:04.024Z,35.37
2023-06-12T00:47:03.925Z,35.35
2023-06-12T00:48:04.043Z,35.35
2023-06-12T00:49:03.964Z,35.28
2023-06-12T00:50:04.010Z,35.28
2023-06-12T00:51:04.030Z,35.36
2023-06-12T00:52:04.070Z,35.34
2023-06-12T00:53:04.083Z,35.32
2023-06-12T00:54:04.115Z,35.33
2023-06-12T00:55:04.121Z,35.24
2023-06-12T00:56:04.090Z,35.28
2023-06-12T00:57:04.094Z,35.26
2023-06-12T00:58:04.101Z,35.24
2023-06-12T00:59:04.110Z,35.25
2023-06-12T01:00:04.086Z,35.27
2023-06-12T01:01:04.113Z,35.25
2023-06-12T01:02:04.208Z,35.29
2023-06-12T01:03:04.302Z,35.28
2023-06-12T01:04:04.199Z,35.26
2023-06-12T01:05:04.244Z,35.28
2023-06-12T01:06:04.293Z,35.26
2023-06-12T01:07:04.305Z,35.26
2023-06-12T01:08:04.351Z,35.23
2023-06-12T01:09:04.409Z,35.26
2023-06-12T01:10:04.434Z,35.23
2023-06-12T01:11:04.478Z,35.28
2023-06-12T01:12:04.492Z,35.22
2023-06-12T01:13:04.526Z,35.24
2023-06-12T01:14:04.564Z,35.24
2023-06-12T01:15:04.615Z,35.18
2023-06-12T01:16:04.656Z,35.26
2023-06-12T01:17:04.731Z,35.22
2023-06-12T01:18:04.731Z,35.23
2023-06-12T01:19:04.764Z,35.23
2023-06-12T01:20:04.787Z,35.20
2023-06-12T01:21:04.859Z,35.18
2023-06-12T01:22:04.873Z,35.24
2023-06-12T01:23:04.918Z,35.21
2023-06-12T01:24:05.005Z,35.22
2023-06-12T01:25:04.972Z,35.15
2023-06-12T01:26:04.986Z,35.20
2023-06-12T01:27:04.967Z,35.21
2023-06-12T01:28:05.018Z,35.18
2023-06-12T01:29:05.044Z,35.19
2023-06-12T01:30:05.094Z,35.18
2023-06-12T01:31:05.141Z,35.18
2023-06-12T01:32:05.189Z,35.19
2023-06-12T01:33:05.265Z,35.21
2023-06-12T01:34:05.238Z,35.13
2023-06-12T01:35:05.308Z,35.17
2023-06-12T01:36:05.337Z,35.14
2023-06-12T01:37:05.354Z,35.14
2023-06-12T01:38:05.402Z,35.11
2023-06-12T01:39:05.456Z,35.11
2023-06-12T01:40:05.586Z,35.17
2023-06-12T01:41:05.527Z,35.15
2023-06-12T01:42:05.576Z,35.16
2023-06-12T01:43:05.605Z,35.11
2023-06-12T01:44:05.634Z,35.14
2023-06-12T01:45:05.684Z,35.11
2023-06-12T01:46:05.741Z,35.12
2023-06-12T01:47:05.786Z,35.12
2023-06-12T01:48:05.827Z,35.12
2023-06-12T01:49:05.844Z,35.06
2023-06-12T01:50:05.879Z,35.07
2023-06-12T01:51:05.904Z,35.11
2023-06-12T01:52:05.970Z,35.01
2023-06-12T01:53:06.001Z,35.06
2023-06-12T01:54:06.027Z,35.04
2023-06-12T01:55:06.031Z,35.05
2023-06-12T01:56:06.010Z,35.06
2023-06-12T01:57:06.028Z,35.01
2023-06-12T01:58:06.035Z,35.04
2023-06-12T01:59:06.063Z,35.06
2023-06-12T02:00:06.134Z,35.05
2023-06-12T02:01:06.132Z,34.96
2023-06-12T02:02:06.335Z,35.02
2023-06-12T02:03:06.253Z,35.02
2023-06-12T02:04:06.273Z,34.96
2023-06-12T02:05:06.300Z,35.03
2023-06-12T02:06:06.369Z,34.94
2023-06-12T02:07:06.408Z,34.99
2023-06-12T02:08:06.462Z,35.05
2023-06-12T02:09:06.496Z,34.97
2023-06-12T02:10:06.549Z,34.96
2023-06-12T02:11:06.591Z,34.99
2023-06-12T02:12:06.640Z,34.91
2023-06-12T02:13:06.692Z,34.91
2023-06-12T02:14:06.728Z,34.97
2023-06-12T02:15:06.789Z,34.94
2023-06-12T02:16:06.843Z,34.94
2023-06-12T02:17:06.960Z,34.95
2023-06-12T02:18:06.946Z,34.96
2023-06-12T02:19:06.985Z,34.96
2023-06-12T02:20:07.020Z,34.98
2023-06-12T02:21:07.088Z,34.94
2023-06-12T02:22:07.132Z,34.95
2023-06-12T02:23:07.184Z,34.98
2023-06-12T02:24:07.280Z,34.98
2023-06-12T02:25:07.246Z,34.89
2023-06-12T02:26:07.314Z,34.95
2023-06-12T02:27:07.342Z,34.90
2023-06-12T02:28:07.402Z,34.87
2023-06-12T02:29:07.442Z,34.91
2023-06-12T02:30:07.503Z,34.84
2023-06-12T02:31:07.528Z,34.83
2023-06-12T02:32:07.602Z,34.83
2023-06-12T02:33:07.653Z,34.86
2023-06-12T02:34:07.661Z,34.84
2023-06-12T02:35:07.704Z,34.85
2023-06-12T02:36:07.768Z,34.83
2023-06-12T02:37:09.582Z,34.83
2023-06-12T02:38:07.802Z,34.86
2023-06-12T02:39:07.769Z,34.84
2023-06-12T02:40:07.777Z,34.82
2023-06-12T02:41:07.769Z,34.77
2023-06-12T02:42:07.761Z,34.88
2023-06-12T02:43:07.759Z,34.86
2023-06-12T02:44:07.747Z,34.84
2023-06-12T02:45:07.743Z,34.84
2023-06-12T02:46:07.752Z,34.84
2023-06-12T02:47:07.713Z,34.78
2023-06-12T02:48:07.797Z,34.82
2023-06-12T02:49:07.719Z,34.77
2023-06-12T02:50:07.697Z,34.78
2023-06-12T02:51:07.691Z,34.77
2023-06-12T02:52:07.695Z,34.79
2023-06-12T02:53:07.695Z,34.79
2023-06-12T02:54:07.728Z,34.80
2023-06-12T02:55:07.676Z,34.77
2023-06-12T02:56:07.658Z,34.81
2023-06-12T02:57:07.715Z,34.80
2023-06-12T02:58:07.659Z,34.82
2023-06-12T02:59:09.036Z,34.80
2023-06-12T03:00:07.644Z,34.80
2023-06-12T03:01:07.630Z,34.79
2023-06-12T03:02:07.658Z,34.80
2023-06-12T03:03:07.730Z,34.81
2023-06-12T03:04:07.657Z,34.77
2023-06-12T03:05:07.638Z,34.77
2023-06-12T03:06:07.640Z,34.77
2023-06-12T03:07:07.604Z,34.77
2023-06-12T03:08:07.603Z,34.79
2023-06-12T03:09:07.597Z,34.78
2023-06-12T03:10:07.610Z,34.77
2023-06-12T03:11:07.618Z,34.74
2023-06-12T03:12:07.651Z,34.75
2023-06-12T03:13:07.717Z,34.76
2023-06-12T03:14:07.751Z,34.75
2023-06-12T03:15:07.802Z,34.71
2023-06-12T03:16:07.952Z,34.73
2023-06-12T03:17:07.920Z,34.74
2023-06-12T03:18:08.065Z,34.71
2023-06-12T03:19:08.012Z,34.71
2023-06-12T03:20:08.097Z,34.73
2023-06-12T03:21:08.146Z,34.73
2023-06-12T03:22:08.162Z,34.71
2023-06-12T03:23:08.234Z,34.72
2023-06-12T03:24:08.308Z,34.70
2023-06-12T03:25:08.322Z,34.67
2023-06-12T03:26:08.358Z,34.69
2023-06-12T03:27:08.422Z,34.68
2023-06-12T03:28:08.494Z,34.73
2023-06-12T03:29:08.534Z,34.73
2023-06-12T03:30:08.571Z,34.71
2023-06-12T03:31:08.721Z,34.74
2023-06-12T03:32:08.676Z,34.72
2023-06-12T03:33:08.783Z,34.72
2023-06-12T03:34:08.788Z,34.76
2023-06-12T03:35:08.832Z,34.74
2023-06-12T03:36:08.876Z,34.72
2023-06-12T03:37:08.954Z,34.73
2023-06-12T03:38:08.983Z,34.75
2023-06-12T03:39:09.030Z,34.77
2023-06-12T03:40:09.144Z,34.74
2023-06-12T03:41:09.163Z,34.76
2023-06-12T03:42:09.210Z,34.77
2023-06-12T03:43:09.256Z,34.76
2023-06-12T03:44:09.303Z,34.75
2023-06-12T03:45:09.365Z,34.77
2023-06-12T03:46:09.435Z,34.77
2023-06-12T03:47:09.555Z,34.77
2023-06-12T03:48:09.542Z,34.77
2023-06-12T03:49:09.606Z,34.76
2023-06-12T03:50:09.843Z,34.76
2023-06-12T03:51:09.682Z,34.77
2023-06-12T03:52:09.740Z,34.79
2023-06-12T03:53:09.822Z,34.78
2023-06-12T03:54:09.840Z,34.79
2023-06-12T03:55:09.929Z,34.77
2023-06-12T03:56:09.962Z,34.78
2023-06-12T03:57:10.027Z,34.79
2023-06-12T03:58:10.061Z,34.76
2023-06-12T03:59:10.137Z,34.76
2023-06-12T04:00:10.212Z,34.76
2023-06-12T04:01:10.127Z,34.78
2023-06-12T04:02:10.191Z,34.75
2023-06-12T04:03:10.318Z,34.77
2023-06-12T04:04:10.246Z,34.75
2023-06-12T04:05:10.198Z,34.78
2023-06-12T04:06:10.215Z,34.75
2023-06-12T04:07:10.214Z,34.76
2023-06-12T04:08:10.244Z,34.77
2023-06-12T04:09:10.256Z,34.76
2023-06-12T04:10:10.908Z,34.78
2023-06-12T04:11:10.365Z,34.74
2023-06-12T04:12:10.428Z,34.76
2023-06-12T04:13:10.494Z,34.77
2023-06-12T04:14:10.583Z,34.76
2023-06-12T04:15:10.570Z,34.81
2023-06-12T04:16:10.692Z,34.75
2023-06-12T04:17:10.679Z,34.77
2023-06-12T04:18:10.831Z,34.77
2023-06-12T04:19:10.799Z,34.77
2023-06-12T04:20:11.252Z,34.79
2023-06-12T04:21:10.904Z,34.78
2023-06-12T04:22:10.936Z,34.76
2023-06-12T04:23:10.962Z,34.77
2023-06-12T04:24:11.010Z,34.76
2023-06-12T04:25:10.978Z,34.75
2023-06-12T04:26:10.985Z,34.77
2023-06-12T04:27:11.008Z,34.75
2023-06-12T04:28:11.011Z,34.76
2023-06-12T04:29:11.034Z,34.74
2023-06-12T04:30:11.554Z,34.75
2023-06-12T04:31:11.118Z,34.76
2023-06-12T04:32:11.168Z,34.77
2023-06-12T04:33:11.263Z,34.76
2023-06-12T04:34:11.274Z,34.76
2023-06-12T04:35:11.273Z,34.74
2023-06-12T04:36:11.333Z,34.75
2023-06-12T04:37:11.388Z,34.73
2023-06-12T04:38:11.437Z,34.70
2023-06-12T04:39:11.465Z,34.68
2023-06-12T04:40:11.872Z,34.67
2023-06-12T04:41:11.558Z,34.64
2023-06-12T04:42:11.645Z,34.64
2023-06-12T04:43:11.673Z,34.62
2023-06-12T04:44:11.720Z,34.60
2023-06-12T04:45:11.768Z,34.60
2023-06-12T04:46:11.796Z,34.56
2023-06-12T04:47:11.840Z,34.54
2023-06-12T04:48:11.985Z,34.46
2023-06-12T04:49:12.008Z,34.47
2023-06-12T04:50:12.221Z,34.47
2023-06-12T04:51:12.013Z,34.46
2023-06-12T04:52:12.050Z,34.42
2023-06-12T04:53:12.106Z,34.42
2023-06-12T04:54:12.142Z,34.38
2023-06-12T04:55:12.181Z,34.36
2023-06-12T04:56:12.200Z,34.36
2023-06-12T04:57:12.250Z,34.33
2023-06-12T04:58:12.273Z,34.27
2023-06-12T04:59:12.318Z,34.28
2023-06-12T05:00:12.676Z,34.26
2023-06-12T05:01:12.497Z,34.22
2023-06-12T05:02:12.423Z,34.21
2023-06-12T05:03:12.530Z,34.19
2023-06-12T05:04:12.500Z,34.21
2023-06-12T05:05:12.439Z,34.31
2023-06-12T05:06:12.477Z,34.31
2023-06-12T05:07:12.495Z,34.31
2023-06-12T05:08:12.534Z,34.32
2023-06-12T05:09:12.554Z,34.33
2023-06-12T05:10:12.758Z,34.28
2023-06-12T05:11:12.604Z,34.29
2023-06-12T05:12:12.626Z,34.32
2023-06-12T05:13:12.642Z,34.30
2023-06-12T05:14:12.656Z,34.33
2023-06-12T05:15:12.698Z,34.31
2023-06-12T05:16:12.816Z,34.30
2023-06-12T05:17:12.756Z,34.27
2023-06-12T05:18:12.811Z,34.27
2023-06-12T05:19:12.772Z,34.28
2023-06-12T05:20:13.012Z,34.26
2023-06-12T05:21:12.790Z,34.24
2023-06-12T05:22:12.806Z,34.26
2023-06-12T05:23:12.828Z,34.18
2023-06-12T05:24:12.885Z,34.20
2023-06-12T05:25:12.872Z,34.85
2023-06-12T05:26:12.898Z,35.54
2023-06-12T05:27:12.952Z,36.05
2023-06-12T05:28:12.956Z,36.92
2023-06-12T05:29:12.938Z,37.19
2023-06-12T05:30:13.171Z,37.75
2023-06-12T05:31:13.081Z,38.25
2023-06-12T05:32:13.086Z,38.59
2023-06-12T05:33:13.165Z,38.95
2023-06-12T05:34:13.159Z,39.31
2023-06-12T05:35:13.213Z,39.59
2023-06-12T05:36:13.281Z,39.79
2023-06-12T05:37:13.312Z,39.95
2023-06-12T05:38:13.722Z,39.98
2023-06-12T05:39:14.847Z,39.86
2023-06-12T05:40:13.564Z,39.75
2023-06-12T05:41:13.444Z,39.60
2023-06-12T05:42:13.466Z,39.53
2023-06-12T05:43:13.743Z,39.35
2023-06-12T05:44:13.560Z,39.40
2023-06-12T05:45:13.587Z,39.20
2023-06-12T05:46:13.605Z,39.36
2023-06-12T05:47:13.605Z,39.50
2023-06-12T05:48:13.708Z,39.50
2023-06-12T05:49:13.680Z,39.38
2023-06-12T05:50:13.929Z,39.33
2023-06-12T05:51:13.791Z,39.24
2023-06-12T05:52:13.853Z,39.21
2023-06-12T05:53:14.236Z,39.08
2023-06-12T05:54:13.919Z,38.95
2023-06-12T05:55:14.169Z,38.87
2023-06-12T05:56:14.029Z,38.80
2023-06-12T05:57:13.985Z,38.62
2023-06-12T05:58:14.024Z,38.66
2023-06-12T05:59:14.032Z,38.65
2023-06-12T06:00:14.328Z,38.59
2023-06-12T06:01:14.029Z,38.55
2023-06-12T06:02:14.028Z,38.48
2023-06-12T06:03:14.185Z,38.20
2023-06-12T06:04:14.114Z,38.25
2023-06-12T06:05:14.365Z,38.02
2023-06-12T06:06:14.048Z,38.16
2023-06-12T06:07:18.492Z,38.22
2023-06-12T06:08:15.094Z,38.28
2023-06-12T06:09:14.059Z,38.31
2023-06-12T06:10:14.042Z,38.24
2023-06-12T06:11:14.057Z,38.16
2023-06-12T06:12:14.038Z,38.12
2023-06-12T06:13:14.036Z,38.11
2023-06-12T06:14:14.012Z,38.06
2023-06-12T06:15:14.223Z,38.01
2023-06-12T06:16:14.148Z,37.92
2023-06-12T06:17:14.141Z,37.80
2023-06-12T06:18:14.285Z,37.78
2023-06-12T06:19:14.229Z,37.79
2023-06-12T06:20:14.291Z,37.72
2023-06-12T06:21:14.358Z,37.72
2023-06-12T06:22:14.389Z,37.47
2023-06-12T06:23:14.493Z,37.65
2023-06-12T06:24:14.659Z,37.50
2023-06-12T06:25:14.891Z,37.44
2023-06-12T06:26:14.579Z,37.39
2023-06-12T06:27:14.629Z,37.39
2023-06-12T06:28:14.658Z,37.40
2023-06-12T06:29:15.406Z,37.48
2023-06-12T06:30:14.730Z,37.50
2023-06-12T06:31:14.865Z,37.19
2023-06-12T06:32:14.965Z,37.08
2023-06-12T06:33:14.881Z,36.39
2023-06-12T06:34:14.911Z,36.28
2023-06-12T06:35:15.149Z,36.05
2023-06-12T06:36:15.012Z,36.38
2023-06-12T06:37:15.111Z,36.37
2023-06-12T06:38:15.235Z,36.50
2023-06-12T06:39:15.212Z,36.40
2023-06-12T06:40:15.276Z,36.52
2023-06-12T06:41:15.300Z,36.66
2023-06-12T06:42:15.354Z,36.41
2023-06-12T06:43:15.418Z,36.58
2023-06-12T06:44:15.472Z,36.63
2023-06-12T06:45:15.666Z,36.64
2023-06-12T06:46:15.590Z,36.50
2023-06-12T06:47:15.617Z,36.53
2023-06-12T06:48:15.712Z,36.62
2023-06-12T06:49:15.735Z,36.51
2023-06-12T06:50:15.790Z,36.47
2023-06-12T06:51:15.845Z,36.45
2023-06-12T06:52:15.924Z,36.38
2023-06-12T06:53:15.984Z,36.26
2023-06-12T06:54:16.039Z,36.44
2023-06-12T06:55:16.117Z,36.14
2023-06-12T06:56:16.182Z,36.69
2023-06-12T06:57:16.241Z,36.69
2023-06-12T06:58:16.276Z,36.77
2023-06-12T06:59:16.335Z,36.86
2023-06-12T07:00:16.375Z,36.71
2023-06-12T07:01:16.422Z,36.68
2023-06-12T07:02:16.443Z,36.68
2023-06-12T07:03:16.577Z,36.67
2023-06-12T07:04:16.521Z,36.80
2023-06-12T07:05:16.541Z,36.80
2023-06-12T07:06:16.545Z,36.68
2023-06-12T07:07:16.576Z,36.54
2023-06-12T07:08:16.832Z,36.49
2023-06-12T07:09:16.618Z,36.37
2023-06-12T07:10:16.629Z,36.44
2023-06-12T07:11:16.636Z,36.24
2023-06-12T07:12:16.665Z,36.26
2023-06-12T07:13:16.698Z,36.20
2023-06-12T07:14:16.696Z,35.92
2023-06-12T07:15:16.717Z,36.03
2023-06-12T07:16:16.759Z,35.83
2023-06-12T07:17:16.781Z,36.14
2023-06-12T07:18:16.769Z,36.04
2023-06-12T07:19:16.803Z,35.98
2023-06-12T07:20:16.798Z,36.00
2023-06-12T07:21:16.844Z,35.97
2023-06-12T07:22:16.815Z,35.97
2023-06-12T07:23:16.825Z,35.93
2023-06-12T07:24:17.001Z,35.81
2023-06-12T07:25:16.848Z,35.94
2023-06-12T07:27:16.848Z,36.17
2023-06-12T07:28:16.839Z,36.30
2023-06-12T07:29:17.286Z,35.71
2023-06-12T07:30:16.847Z,35.36
2023-06-12T07:31:16.897Z,35.54
2023-06-12T07:32:16.822Z,35.53
2023-06-12T07:33:16.834Z,35.60
2023-06-12T07:34:17.273Z,35.65
2023-06-12T07:35:16.875Z,35.91
2023-06-12T07:36:16.787Z,35.71
2023-06-12T07:37:16.811Z,35.61
2023-06-12T07:38:16.802Z,35.70
2023-06-12T07:39:16.820Z,35.27
2023-06-12T07:40:16.781Z,35.30
2023-06-12T07:41:16.756Z,35.38
2023-06-12T07:42:16.749Z,35.56
2023-06-12T07:43:16.758Z,35.53
2023-06-12T07:44:16.761Z,35.53
2023-06-12T07:45:17.107Z,35.67
2023-06-12T07:46:16.748Z,35.43
2023-06-12T07:47:16.738Z,35.70
2023-06-12T07:48:16.817Z,35.31
2023-06-12T07:49:16.719Z,35.03
2023-06-12T07:50:16.764Z,34.97
2023-06-12T07:51:16.708Z,34.62
2023-06-12T07:52:16.690Z,34.83
2023-06-12T07:53:32.463Z,34.90
2023-06-12T07:54:17.681Z,34.69
2023-06-12T07:55:16.674Z,34.64
2023-06-12T07:56:16.689Z,34.97
2023-06-12T07:57:16.670Z,34.93
2023-06-12T07:58:16.654Z,34.63
2023-06-12T07:59:16.656Z,34.65
2023-06-12T08:00:16.665Z,34.79
2023-06-12T08:01:16.628Z,35.00
2023-06-12T08:02:16.708Z,35.01
2023-06-12T08:03:30.318Z,34.95
2023-06-12T08:04:17.652Z,35.00
2023-06-12T08:05:16.818Z,34.79
2023-06-12T08:06:16.808Z,34.85
2023-06-12T08:07:16.600Z,34.60
2023-06-12T08:08:16.793Z,34.36
2023-06-12T08:09:16.607Z,34.01
2023-06-12T08:10:16.584Z,34.49
2023-06-12T08:11:16.620Z,34.59
2023-06-12T08:12:16.583Z,34.48
2023-06-12T08:13:16.578Z,34.53
2023-06-12T08:14:16.562Z,34.37
2023-06-12T08:15:16.554Z,34.40
2023-06-12T08:16:16.609Z,34.37
2023-06-12T08:17:16.653Z,34.13
2023-06-12T08:18:16.556Z,34.06
2023-06-12T08:19:16.523Z,34.18
2023-06-12T08:20:16.529Z,33.94
2023-06-12T08:23:29.074Z,35.13
2023-06-12T08:24:29.044Z,34.22
2023-06-12T08:25:29.133Z,34.11
2023-06-12T08:26:29.255Z,34.26
2023-06-12T08:27:29.201Z,34.08
2023-06-12T08:28:29.573Z,34.04
2023-06-12T08:29:29.258Z,33.86
2023-06-12T08:30:29.250Z,33.94
2023-06-12T08:31:29.519Z,33.70
2023-06-12T08:32:29.386Z,33.79
2023-06-12T08:33:29.585Z,33.61
2023-06-12T08:34:29.282Z,33.52
2023-06-12T08:35:29.294Z,33.69
2023-06-12T08:36:29.311Z,33.54
2023-06-12T08:37:29.311Z,33.74
2023-06-12T08:38:32.196Z,33.68
2023-06-12T08:39:29.353Z,34.02
2023-06-12T08:40:29.402Z,34.19
2023-06-12T08:41:29.316Z,34.11
2023-06-12T08:42:29.312Z,34.22
2023-06-12T08:43:29.419Z,34.10
2023-06-12T08:44:29.297Z,34.20
2023-06-12T08:45:29.594Z,34.38
2023-06-12T08:46:29.343Z,34.44
2023-06-12T08:47:29.337Z,34.48
2023-06-12T08:48:29.287Z,34.72
2023-06-12T08:49:29.289Z,34.72
2023-06-12T08:50:29.255Z,34.17
2023-06-12T08:51:29.251Z,34.10
2023-06-12T08:52:29.265Z,34.14
2023-06-12T08:53:29.587Z,34.28
2023-06-12T08:54:29.236Z,34.04
2023-06-12T08:55:29.249Z,33.79
2023-06-12T08:56:29.258Z,33.97
2023-06-12T08:57:29.205Z,33.97
2023-06-12T08:58:29.588Z,34.11
2023-06-12T08:59:29.202Z,34.24
2023-06-12T09:00:29.191Z,34.13
2023-06-12T09:01:29.263Z,34.23
2023-06-12T09:02:29.319Z,34.22
2023-06-12T09:03:29.263Z,34.03
2023-06-12T09:04:29.219Z,34.13
2023-06-12T09:05:29.181Z,33.83
2023-06-12T09:06:29.156Z,33.76
2023-06-12T09:07:29.164Z,33.96
2023-06-12T09:08:29.583Z,33.81
2023-06-12T09:09:29.156Z,33.78
2023-06-12T09:10:29.146Z,33.68
2023-06-12T09:11:29.124Z,33.62
2023-06-12T09:12:29.130Z,33.58
2023-06-12T09:13:29.599Z,33.66
2023-06-12T09:14:29.124Z,33.72
2023-06-12T09:15:29.123Z,33.74
2023-06-12T09:16:29.150Z,33.84
2023-06-12T09:17:29.135Z,33.77
2023-06-12T09:18:29.757Z,33.98
2023-06-12T09:19:29.080Z,33.91
2023-06-12T09:21:29.051Z,33.72
2023-06-12T09:22:29.049Z,33.57
2023-06-12T09:23:29.105Z,33.77
2023-06-12T09:24:29.130Z,33.86
2023-06-12T09:25:29.039Z,33.87
2023-06-12T09:26:29.021Z,33.95
2023-06-12T09:27:29.008Z,33.91
2023-06-12T09:28:29.009Z,33.29
2023-06-12T09:29:29.092Z,33.03
2023-06-12T09:30:29.010Z,33.06
2023-06-12T09:31:29.013Z,32.80
2023-06-12T09:32:29.065Z,32.77
2023-06-12T09:33:29.089Z,33.08
2023-06-12T09:34:29.083Z,32.78
2023-06-12T09:35:28.967Z,32.71
2023-06-12T09:36:28.953Z,32.66
2023-06-12T09:37:28.965Z,32.74
2023-06-12T09:38:29.101Z,32.88
2023-06-12T09:39:28.956Z,32.62
2023-06-12T09:40:28.950Z,32.98
2023-06-12T09:41:28.941Z,33.16
2023-06-12T09:42:28.934Z,33.25
2023-06-12T09:43:28.927Z,33.14
2023-06-12T09:44:28.891Z,33.16
2023-06-12T09:45:28.895Z,32.93
2023-06-12T09:46:28.909Z,32.91
2023-06-12T09:47:28.921Z,33.19
2023-06-12T09:48:28.877Z,33.17
2023-06-12T09:49:28.890Z,33.36
2023-06-12T09:50:28.859Z,33.51
2023-06-12T09:51:28.876Z,33.55
2023-06-12T09:52:28.852Z,33.66
2023-06-12T09:53:29.264Z,33.70
2023-06-12T09:54:28.848Z,33.39
2023-06-12T09:55:28.838Z,33.48
2023-06-12T09:56:28.857Z,33.46
2023-06-12T09:57:28.851Z,33.49
2023-06-12T09:58:28.841Z,33.28
2023-06-12T09:59:28.816Z,33.30
2023-06-12T10:00:28.799Z,33.38
2023-06-12T10:01:28.970Z,33.44
2023-06-12T10:02:28.838Z,33.23
2023-06-12T10:03:29.662Z,33.43
2023-06-12T10:04:28.795Z,33.33
2023-06-12T10:05:28.763Z,33.25
2023-06-12T10:06:28.779Z,33.42
2023-06-12T10:07:28.776Z,33.06
2023-06-12T10:08:29.111Z,32.89
2023-06-12T10:09:28.850Z,32.78
2023-06-12T10:10:28.903Z,32.84
2023-06-12T10:11:28.955Z,32.49
2023-06-12T10:12:29.006Z,32.38
2023-06-12T10:13:29.034Z,32.31
2023-06-12T10:14:29.125Z,31.90
2023-06-12T10:15:29.139Z,32.04
2023-06-12T10:16:29.208Z,32.22
2023-06-12T10:17:31.377Z,32.38
2023-06-12T10:18:29.237Z,32.35
2023-06-12T10:19:29.227Z,32.48
2023-06-12T10:20:29.214Z,32.62
2023-06-12T10:21:29.207Z,32.82
2023-06-12T10:22:29.213Z,32.81
2023-06-12T10:23:30.051Z,32.81
2023-06-12T10:24:29.718Z,32.97
2023-06-12T10:25:29.185Z,33.07
2023-06-12T10:26:29.184Z,33.23
2023-06-12T10:27:29.177Z,33.83
2023-06-12T10:28:29.184Z,34.01
2023-06-12T10:29:31.862Z,33.69
2023-06-12T10:30:29.162Z,32.90
2023-06-12T10:31:29.211Z,33.09
2023-06-12T10:32:29.162Z,33.10
2023-06-12T10:33:29.632Z,32.97
2023-06-12T10:34:29.138Z,32.90
2023-06-12T10:35:29.138Z,32.83
2023-06-12T10:36:31.161Z,32.79
2023-06-12T10:37:29.123Z,32.74
2023-06-12T10:38:29.610Z,32.72
2023-06-12T10:39:29.142Z,32.67
2023-06-12T10:40:46.870Z,32.69
2023-06-12T10:41:30.100Z,32.65
2023-06-12T10:42:29.595Z,32.52
2023-06-12T10:43:29.088Z,32.50
2023-06-12T10:44:29.120Z,32.46
2023-06-12T10:45:29.090Z,32.45
2023-06-12T10:46:29.189Z,32.42
2023-06-12T10:47:29.100Z,32.41
2023-06-12T10:48:29.087Z,32.23
2023-06-12T10:49:29.056Z,32.15
2023-06-12T10:50:29.104Z,32.18
2023-06-12T10:51:29.041Z,32.08
2023-06-12T10:52:29.072Z,32.22
2023-06-12T10:53:29.071Z,32.19
2023-06-12T10:54:29.059Z,32.18
2023-06-12T10:55:29.053Z,32.18
2023-06-12T10:56:29.073Z,32.20
2023-06-12T10:57:29.054Z,32.10
2023-06-12T10:58:29.137Z,32.07
2023-06-12T10:59:29.071Z,31.97
2023-06-12T11:00:29.028Z,31.94
2023-06-12T11:01:29.125Z,32.06
2023-06-12T11:02:29.230Z,32.05
2023-06-12T11:03:29.275Z,32.04
2023-06-12T11:04:29.320Z,32.04
2023-06-12T11:05:29.268Z,32.02
2023-06-12T11:06:29.177Z,31.96
2023-06-12T11:07:29.658Z,31.95
2023-06-12T11:08:29.687Z,31.98
2023-06-12T11:09:29.293Z,31.96
2023-06-12T11:10:29.315Z,31.91
2023-06-12T11:11:29.333Z,31.91
2023-06-12T11:12:38.276Z,32.26
2023-06-12T11:13:30.662Z,31.61
2023-06-12T11:14:29.408Z,31.87
2023-06-12T11:15:29.407Z,31.99
2023-06-12T11:16:29.416Z,31.92
2023-06-12T11:17:29.403Z,32.01
2023-06-12T11:18:30.168Z,32.00
2023-06-12T11:19:29.349Z,32.06
2023-06-12T11:20:31.106Z,32.04
2023-06-12T11:21:29.502Z,32.11
2023-06-12T11:22:29.591Z,32.11
2023-06-12T11:23:29.623Z,32.10
2023-06-12T11:24:29.734Z,32.05
2023-06-12T11:25:29.796Z,31.52
2023-06-12T11:26:29.736Z,31.55
2023-06-12T11:27:29.813Z,32.57
2023-06-12T11:28:29.850Z,31.96
2023-06-12T11:29:29.901Z,31.58
2023-06-12T11:31:30.020Z,32.17
2023-06-12T11:32:30.115Z,32.57
2023-06-12T11:33:30.153Z,32.72
2023-06-12T11:34:30.278Z,32.82
2023-06-12T11:35:30.234Z,32.92
2023-06-12T11:36:30.450Z,33.08
2023-06-12T11:37:30.711Z,33.13
2023-06-12T11:40:30.387Z,33.47
2023-06-12T11:41:30.413Z,33.45
2023-06-12T11:42:30.382Z,33.37
2023-06-12T11:43:30.375Z,33.44
2023-06-12T11:44:30.383Z,33.49
2023-06-12T11:45:30.354Z,33.57
2023-06-12T11:46:30.366Z,33.63
2023-06-12T11:49:30.489Z,33.87
2023-06-12T11:50:30.359Z,33.88
2023-06-12T11:51:30.951Z,33.92
2023-06-12T11:52:30.324Z,33.89
2023-06-12T11:53:30.316Z,33.96
2023-06-12T11:57:30.291Z,34.04
2023-06-12T11:58:30.276Z,34.05
2023-06-12T11:59:30.290Z,34.06
2023-06-12T12:00:30.279Z,34.09
2023-06-12T12:01:30.258Z,34.09
2023-06-12T12:02:30.380Z,34.05
2023-06-12T12:03:30.247Z,34.02
2023-06-12T12:04:30.296Z,34.03
2023-06-12T12:05:30.231Z,34.01
2023-06-12T12:06:30.236Z,34.00
2023-06-12T12:07:30.237Z,33.96
2023-06-12T12:08:30.236Z,34.00
2023-06-12T12:09:30.214Z,33.99
2023-06-12T12:10:30.219Z,33.96
2023-06-12T12:11:30.221Z,33.94
2023-06-12T12:12:30.192Z,33.90
2023-06-12T12:13:30.205Z,33.89
2023-06-12T12:14:30.200Z,33.86
2023-06-12T12:15:30.259Z,33.84
2023-06-12T12:16:30.610Z,33.79
2023-06-12T12:17:30.267Z,33.79
2023-06-12T12:18:30.164Z,33.79
2023-06-12T12:19:30.174Z,33.78
2023-06-12T12:20:30.140Z,33.77
2023-06-12T12:21:30.144Z,33.74
2023-06-12T12:22:30.136Z,33.73
2023-06-12T12:23:30.163Z,33.73
2023-06-12T12:24:30.204Z,33.71
2023-06-12T12:25:30.135Z,33.73
2023-06-12T12:26:30.126Z,33.71
2023-06-12T12:27:30.125Z,33.69
2023-06-12T12:28:30.106Z,33.70
2023-06-12T12:29:30.099Z,33.67
2023-06-12T12:30:30.125Z,33.69
2023-06-12T12:31:30.149Z,33.65
2023-06-12T12:32:30.088Z,33.64
2023-06-12T12:33:30.065Z,33.61
2023-06-12T12:34:30.157Z,33.59
2023-06-12T12:35:30.068Z,33.61
2023-06-12T12:36:30.085Z,33.60
2023-06-12T12:37:30.069Z,33.57
2023-06-12T12:38:30.094Z,33.57
2023-06-12T12:39:30.173Z,33.55
2023-06-12T12:40:30.209Z,33.51
2023-06-12T12:41:30.023Z,33.53
2023-06-12T12:42:30.029Z,33.53
2023-06-12T12:43:30.055Z,33.51
2023-06-12T12:44:30.022Z,33.53
2023-06-12T12:45:30.042Z,33.48
2023-06-12T12:46:30.023Z,33.49
2023-06-12T12:47:30.088Z,33.52
2023-06-12T12:48:30.096Z,33.49
2023-06-12T12:49:29.996Z,33.45
2023-06-12T12:50:33.089Z,33.43
2023-06-12T12:51:29.982Z,33.44
2023-06-12T12:52:38.184Z,33.42
2023-06-12T12:53:30.977Z,33.42
2023-06-12T12:54:29.990Z,33.40
2023-06-12T12:55:32.448Z,33.40
2023-06-12T12:56:29.958Z,33.41
2023-06-12T12:57:29.939Z,33.43
2023-06-12T12:58:29.944Z,33.42
2023-06-12T12:59:29.929Z,33.38
2023-06-12T13:00:29.944Z,33.36
2023-06-12T13:01:29.973Z,33.37
2023-06-12T13:02:29.984Z,33.33
2023-06-12T13:03:30.258Z,33.35
2023-06-12T13:04:29.913Z,33.31